MMPG

Piedras Negras International Airport

Mexico
TAF AMD MMPG 171901Z 1719/1818 30005KT 3SM BR BKN006 FM172000 09006KT 5SM HZ BKN010 BKN250 FM172100 14012KT 6SM HZ SCT015 BKN250 BECMG 1801/1802 14006KT BKN250 FM181000 18005KT 3SM BR HZ BKN005 BKN250 TEMPO 1811/1815 1/2SM FG VV002
Issued Valid From Valid To
Jan-17 @ 19:01 UTC
(5 hours ago)
Jan-17 @ 19:00 UTC
(5 hours ago)
Jan-18 @ 18:00 UTC
(in 18 hours)
Expired Click to View Jan-17 @ 19:00 to Jan-17 @ 20:00
TAF AMD MMPG 171901Z 1719/1818 30005KT 3SM BR BKN006
Wind Visibility Clouds Conditions
300° at 5 knots 3 miles
  • Broken at 600' AGL
  • Mist
Expired Click to View Jan-17 @ 20:00 to Jan-17 @ 21:00
FM172000 09006KT 5SM HZ BKN010 BKN250
Wind Visibility Clouds Conditions
90° at 6 knots 5 miles
  • Broken at 1,000' AGL
  • Broken at 25,000' AGL
  • Haze
From Jan-17 @ 21:00 to Jan-18 @ 01:00
FM172100 14012KT 6SM HZ SCT015 BKN250
Wind Visibility Clouds Conditions
140° at 12 knots 6 miles
  • Scattered at 1,500' AGL
  • Broken at 25,000' AGL
  • Haze
Becoming Jan-18 @ 01:00 to Jan-18 @ 10:00
BECMG 1801/1802 14006KT BKN250
Wind Visibility Clouds Conditions
140° at 6 knots 6 miles
  • Broken at 25,000' AGL
  • Haze
From Jan-18 @ 10:00 to Jan-18 @ 18:00
FM181000 18005KT 3SM BR HZ BKN005 BKN250
Wind Visibility Clouds Conditions
180° at 5 knots 3 miles
  • Broken at 500' AGL
  • Broken at 25,000' AGL
  • Mist
  • Haze
Temporary Jan-18 @ 11:00 to Jan-18 @ 15:00
TEMPO 1811/1815 1/2SM FG VV002
Visibility Clouds Conditions
1/2 miles
  • Vertical visibility at 200' AGL
  • Fog
TAF AMD MMPG 171901Z 1719/1818 30005KT 3SM BR BKN006 FM172000 09006KT 5SM HZ BKN010 BKN250 FM172100 14012KT 6SM HZ SCT015 BKN250 BECMG 1801/1802 14006KT BKN250 FM181000 18005KT 3SM BR HZ BKN005 BKN250 TEMPO 1811/1815 1/2SM FG VV002
Issued Jan-17 @ 19:01 UTC
(5 hours ago)
Valid From Jan-17 @ 19:00 UTC
(5 hours ago)
Valid To Jan-18 @ 18:00 UTC
(in 18 hours)
Jan-17 @ 19:00 - Jan-17 @ 20:00
Wind Visibility
300° at 5 knots 3 miles
Clouds
  • Broken at 600' AGL
Conditions
  • Mist
Jan-17 @ 20:00 - Jan-17 @ 21:00
Wind Visibility
90° at 6 knots 5 miles
Clouds
  • Broken at 1,000' AGL
  • Broken at 25,000' AGL
Conditions
  • Haze
From Jan-17 @ 21:00 - Jan-18 @ 01:00
Wind Visibility
140° at 12 knots 6 miles
Clouds
  • Scattered at 1,500' AGL
  • Broken at 25,000' AGL
Conditions
  • Haze
Becoming Jan-18 @ 01:00 - Jan-18 @ 10:00
Wind Visibility
140° at 6 knots 6 miles
Clouds
  • Broken at 25,000' AGL
Conditions
  • Haze
From Jan-18 @ 10:00 - Jan-18 @ 18:00
Wind Visibility
180° at 5 knots 3 miles
Clouds
  • Broken at 500' AGL
  • Broken at 25,000' AGL
Conditions
  • Mist
  • Haze
Temporary Jan-18 @ 11:00 - Jan-18 @ 15:00
Clouds
  • Vertical visibility at 200' AGL
Conditions
  • Fog